createdAt,value
2023-03-05T00:00:50.904Z,-0.362
2023-03-05T00:01:50.911Z,-0.3528
2023-03-05T00:02:51.046Z,-0.3369
2023-03-05T00:03:51.028Z,-0.3369
2023-03-05T00:04:51.015Z,-0.321
2023-03-05T00:05:51.056Z,-0.2892
2023-03-05T00:06:51.088Z,-0.2961
2023-03-05T00:07:51.114Z,-0.3131
2023-03-05T00:08:51.145Z,-0.3323
2023-03-05T00:09:51.175Z,-0.3481
2023-03-05T00:10:51.218Z,-0.3165
2023-03-05T00:11:51.273Z,-0.3165
2023-03-05T00:12:51.292Z,-0.3165
2023-03-05T00:13:51.321Z,-0.3392
2023-03-05T00:14:51.346Z,-0.3392
2023-03-05T00:15:51.427Z,-0.3221
2023-03-05T00:16:51.422Z,-0.3899
2023-03-05T00:17:51.458Z,-0.3741
2023-03-05T00:18:51.493Z,-0.3887
2023-03-05T00:19:51.522Z,-0.3571
2023-03-05T00:20:51.561Z,-0.3887
2023-03-05T00:21:51.590Z,-0.4046
2023-03-05T00:22:51.650Z,-0.3571
2023-03-05T00:23:51.665Z,-0.3571
2023-03-05T00:24:51.694Z,-0.3571
2023-03-05T00:25:51.729Z,-0.3571
2023-03-05T00:26:51.756Z,-0.3571
2023-03-05T00:27:51.796Z,-0.3887
2023-03-05T00:28:51.868Z,-0.3887
2023-03-05T00:29:51.867Z,-0.4046
2023-03-05T00:30:51.929Z,-0.4362
2023-03-05T00:31:51.927Z,-0.4362
2023-03-05T00:32:51.958Z,-0.4362
2023-03-05T00:33:52.007Z,-0.4521
2023-03-05T00:34:52.051Z,-0.468
2023-03-05T00:35:52.151Z,-0.4839
2023-03-05T00:36:52.118Z,-0.5317
2023-03-05T00:37:52.139Z,-0.5637
2023-03-05T00:38:52.180Z,-0.6344
2023-03-05T00:39:52.220Z,-0.6761
2023-03-05T00:40:52.244Z,-0.6987
2023-03-05T00:41:52.277Z,-0.6987
2023-03-05T00:42:52.302Z,-0.7471
2023-03-05T00:43:52.334Z,-0.7633
2023-03-05T00:44:52.373Z,-0.7794
2023-03-05T00:45:52.449Z,-0.8606
2023-03-05T00:46:52.500Z,-0.8932
2023-03-05T00:47:52.474Z,-0.9586
2023-03-05T00:48:52.535Z,-0.9914
2023-03-05T00:49:52.546Z,-0.9586
2023-03-05T00:50:52.590Z,-0.9586
2023-03-05T00:51:52.635Z,-1.008
2023-03-05T00:52:52.633Z,-1.057
2023-03-05T00:53:52.668Z,-1.123
2023-03-05T00:54:52.695Z,-1.156
2023-03-05T00:55:52.730Z,-1.256
2023-03-05T00:56:52.765Z,-1.29
2023-03-05T00:57:52.803Z,-1.329
2023-03-05T00:58:52.839Z,-1.329
2023-03-05T00:59:52.875Z,-1.379
2023-03-05T01:00:52.905Z,-1.481
2023-03-05T01:01:52.985Z,-1.531
2023-03-05T01:02:52.972Z,-1.548
2023-03-05T01:03:53.007Z,-1.685
2023-03-05T01:04:53.067Z,-1.788
2023-03-05T01:05:53.059Z,-1.828
2023-03-05T01:06:53.112Z,-1.793
2023-03-05T01:07:53.119Z,-1.776
2023-03-05T01:08:53.150Z,-1.833
2023-03-05T01:09:53.184Z,-1.936
2023-03-05T01:10:53.214Z,-1.954
2023-03-05T01:11:53.258Z,-2.01
2023-03-05T01:12:53.279Z,-1.958
2023-03-05T01:13:53.307Z,-1.923
2023-03-05T01:14:53.338Z,-1.975
2023-03-05T01:15:53.437Z,-1.941
2023-03-05T01:16:53.407Z,-1.923
2023-03-05T01:17:53.433Z,-1.992
2023-03-05T01:18:53.474Z,-2.067
2023-03-05T01:19:53.507Z,-2.067
2023-03-05T01:20:53.538Z,-2.101
2023-03-05T01:21:53.572Z,-2.136
2023-03-05T01:22:53.612Z,-2.136
2023-03-05T01:23:53.650Z,-2.154
2023-03-05T01:24:53.673Z,-2.159
2023-03-05T01:25:53.689Z,-2.124
2023-03-05T01:26:53.724Z,-2.124
2023-03-05T01:27:53.770Z,-2.124
2023-03-05T01:28:53.796Z,-2.199
2023-03-05T01:29:53.832Z,-2.269
2023-03-05T01:30:53.869Z,-2.304
2023-03-05T01:31:53.941Z,-2.339
2023-03-05T01:32:53.937Z,-2.448
2023-03-05T01:33:53.969Z,-2.484
2023-03-05T01:34:53.990Z,-2.537
2023-03-05T01:35:54.106Z,-2.573
2023-03-05T01:36:54.054Z,-2.595
2023-03-05T01:37:54.107Z,-2.506
2023-03-05T01:38:54.116Z,-2.541
2023-03-05T01:39:54.153Z,-2.665
2023-03-05T01:40:54.196Z,-2.687
2023-03-05T01:41:54.227Z,-2.652
2023-03-05T01:42:54.273Z,-2.705
2023-03-05T01:43:54.290Z,-2.727
2023-03-05T01:44:54.333Z,-2.638
2023-03-05T01:45:54.431Z,-2.62
2023-03-05T01:46:54.410Z,-2.655
2023-03-05T01:47:54.424Z,-2.709
2023-03-05T01:48:54.456Z,-2.782
2023-03-05T01:49:54.491Z,-2.764
2023-03-05T01:50:54.517Z,-2.836
2023-03-05T01:51:54.554Z,-2.854
2023-03-05T01:52:54.598Z,-2.8
2023-03-05T01:53:54.618Z,-2.854
2023-03-05T01:54:54.666Z,-2.854
2023-03-05T01:55:56.235Z,-2.948
2023-03-05T01:56:54.729Z,-3.002
2023-03-05T01:57:54.752Z,-2.948
2023-03-05T01:58:54.774Z,-3.006
2023-03-05T01:59:54.815Z,-3.042
2023-03-05T02:00:54.902Z,-3.076
2023-03-05T02:01:54.869Z,-3.112
2023-03-05T02:02:54.914Z,-3.094
2023-03-05T02:03:55.011Z,-3.13
2023-03-05T02:04:54.993Z,-3.076
2023-03-05T02:05:55.013Z,-3.058
2023-03-05T02:06:55.033Z,-3.149
2023-03-05T02:07:55.069Z,-3.13
2023-03-05T02:08:55.112Z,-3.149
2023-03-05T02:09:55.149Z,-3.203
2023-03-05T02:10:55.199Z,-3.203
2023-03-05T02:11:55.229Z,-3.167
2023-03-05T02:12:55.252Z,-3.221
2023-03-05T02:13:55.292Z,-3.221
2023-03-05T02:14:55.325Z,-3.313
2023-03-05T02:15:55.351Z,-3.349
2023-03-05T02:16:55.594Z,-3.331
2023-03-05T02:17:55.435Z,-3.349
2023-03-05T02:18:55.448Z,-3.372
2023-03-05T02:19:55.481Z,-3.317
2023-03-05T02:20:55.522Z,-3.335
2023-03-05T02:21:55.554Z,-3.317
2023-03-05T02:22:55.594Z,-3.281
2023-03-05T02:23:55.613Z,-3.281
2023-03-05T02:24:55.639Z,-3.299
2023-03-05T02:25:55.675Z,-3.35
2023-03-05T02:26:55.706Z,-3.372
2023-03-05T02:27:55.772Z,-3.353
2023-03-05T02:28:55.786Z,-3.294
2023-03-05T02:29:55.824Z,-3.204
2023-03-05T02:30:55.844Z,-3.258
2023-03-05T02:31:55.943Z,-3.313
2023-03-05T02:32:55.916Z,-3.313
2023-03-05T02:33:55.952Z,-3.35
2023-03-05T02:34:55.992Z,-3.277
2023-03-05T02:35:56.100Z,-3.313
2023-03-05T02:36:56.058Z,-3.315
2023-03-05T02:37:56.084Z,-3.368
2023-03-05T02:38:56.109Z,-3.368
2023-03-05T02:39:56.143Z,-3.352
2023-03-05T02:40:56.192Z,-3.348
2023-03-05T02:41:56.228Z,-3.256
2023-03-05T02:42:56.242Z,-3.293
2023-03-05T02:43:56.282Z,-3.293
2023-03-05T02:44:56.319Z,-3.29
2023-03-05T02:45:56.388Z,-3.326
2023-03-05T02:46:56.398Z,-3.271
2023-03-05T02:47:56.427Z,-3.271
2023-03-05T02:48:56.461Z,-3.29
2023-03-05T02:49:56.532Z,-3.271
2023-03-05T02:50:56.523Z,-3.235
2023-03-05T02:51:56.550Z,-3.253
2023-03-05T02:52:56.592Z,-3.235
2023-03-05T02:53:56.628Z,-3.235
2023-03-05T02:54:56.668Z,-3.235
2023-03-05T02:55:56.695Z,-3.271
2023-03-05T02:56:56.741Z,-3.235
2023-03-05T02:57:56.767Z,-3.217
2023-03-05T02:58:56.809Z,-3.235
2023-03-05T02:59:56.946Z,-3.235
2023-03-05T03:00:56.916Z,-3.18
2023-03-05T03:01:56.917Z,-3.198
2023-03-05T03:02:56.956Z,-3.18
2023-03-05T03:03:56.970Z,-3.18
2023-03-05T03:04:57.014Z,-3.162
2023-03-05T03:05:57.046Z,-3.162
2023-03-05T03:06:57.087Z,-3.144
2023-03-05T03:07:57.111Z,-3.126
2023-03-05T03:08:57.152Z,-3.126
2023-03-05T03:09:57.188Z,-3.09
2023-03-05T03:10:57.217Z,-3.126
2023-03-05T03:11:57.260Z,-3.18
2023-03-05T03:12:57.289Z,-3.126
2023-03-05T03:13:57.315Z,-3.108
2023-03-05T03:14:57.348Z,-3.108
2023-03-05T03:15:57.386Z,-3.111
2023-03-05T03:16:57.451Z,-3.072
2023-03-05T03:17:57.450Z,-3.09
2023-03-05T03:18:57.509Z,-3.09
2023-03-05T03:19:57.517Z,-3.093
2023-03-05T03:20:57.567Z,-3.036
2023-03-05T03:21:57.591Z,-3.036
2023-03-05T03:22:57.630Z,-3.036
2023-03-05T03:23:57.666Z,-3.093
2023-03-05T03:24:57.693Z,-3.111
2023-03-05T03:25:57.713Z,-3.111
2023-03-05T03:26:57.744Z,-3.133
2023-03-05T03:27:57.783Z,-3.115
2023-03-05T03:28:57.813Z,-3.119
2023-03-05T03:29:57.859Z,-3.101
2023-03-05T03:30:57.901Z,-3.121
2023-03-05T03:31:57.926Z,-3.085
2023-03-05T03:32:57.935Z,-3.09
2023-03-05T03:33:57.968Z,-3.072
2023-03-05T03:34:58.019Z,-3.076
2023-03-05T03:35:58.145Z,-3.059
2023-03-05T03:36:58.079Z,-3.023
2023-03-05T03:37:58.111Z,-3.01
2023-03-05T03:38:58.149Z,-2.992
2023-03-05T03:39:58.200Z,-2.961
2023-03-05T03:40:58.222Z,-2.995
2023-03-05T03:41:58.251Z,-2.982
2023-03-05T03:42:58.281Z,-2.93
2023-03-05T03:43:58.321Z,-2.912
2023-03-05T03:44:58.362Z,-2.917
2023-03-05T03:45:58.420Z,-2.9
2023-03-05T03:46:58.417Z,-2.922
2023-03-05T03:47:58.459Z,-2.887
2023-03-05T03:48:58.498Z,-2.87
2023-03-05T03:49:58.531Z,-2.887
2023-03-05T03:50:58.574Z,-2.875
2023-03-05T03:51:58.598Z,-2.875
2023-03-05T03:52:58.624Z,-2.858
2023-03-05T03:53:58.665Z,-2.84
2023-03-05T03:54:58.684Z,-2.845
2023-03-05T03:55:58.738Z,-2.81
2023-03-05T03:56:58.763Z,-2.793
2023-03-05T03:57:58.804Z,-2.794
2023-03-05T03:58:58.836Z,-2.817
2023-03-05T03:59:58.872Z,-2.834
2023-03-05T04:00:58.945Z,-2.782
2023-03-05T04:01:58.946Z,-2.765
2023-03-05T04:02:58.976Z,-2.77
2023-03-05T04:03:59.058Z,-2.753
2023-03-05T04:04:59.049Z,-2.736
2023-03-05T04:05:59.084Z,-2.719
2023-03-05T04:06:59.108Z,-2.724
2023-03-05T04:07:59.156Z,-2.69
2023-03-05T04:08:59.180Z,-2.673
2023-03-05T04:09:59.214Z,-2.639
2023-03-05T04:10:59.240Z,-2.645
2023-03-05T04:11:59.269Z,-2.645
2023-03-05T04:12:59.321Z,-2.611
2023-03-05T04:13:59.342Z,-2.578
2023-03-05T04:14:59.363Z,-2.561
2023-03-05T04:15:59.447Z,-2.544
2023-03-05T04:16:59.440Z,-2.579
2023-03-05T04:17:59.473Z,-2.602
2023-03-05T04:18:59.504Z,-2.579
2023-03-05T04:19:59.565Z,-2.568
2023-03-05T04:20:59.564Z,-2.535
2023-03-05T04:21:59.609Z,-2.518
2023-03-05T04:22:59.640Z,-2.502
2023-03-05T04:23:59.680Z,-2.485
2023-03-05T04:24:59.728Z,-2.468
2023-03-05T04:25:59.777Z,-2.452
2023-03-05T04:26:59.790Z,-2.435
2023-03-05T04:27:59.817Z,-2.441
2023-03-05T04:28:59.852Z,-2.425
2023-03-05T04:29:59.888Z,-2.408
2023-03-05T04:30:59.981Z,-2.392
2023-03-05T04:32:00.039Z,-2.375
2023-03-05T04:32:59.993Z,-2.358
2023-03-05T04:34:00.030Z,-2.377
2023-03-05T04:35:00.061Z,-2.377
2023-03-05T04:36:00.125Z,-2.344
2023-03-05T04:37:00.141Z,-2.344
2023-03-05T04:38:00.167Z,-2.328
2023-03-05T04:39:00.200Z,-2.328
2023-03-05T04:40:00.266Z,-2.311
2023-03-05T04:41:00.289Z,-2.311
2023-03-05T04:42:00.310Z,-2.3
2023-03-05T04:43:00.370Z,-2.284
2023-03-05T04:44:00.388Z,-2.268
2023-03-05T04:45:00.417Z,-2.251
2023-03-05T04:46:00.493Z,-2.235
2023-03-05T04:47:00.489Z,-2.203
2023-03-05T04:48:00.537Z,-2.203
2023-03-05T04:49:00.562Z,-2.17
2023-03-05T04:50:00.603Z,-2.154
2023-03-05T04:51:00.624Z,-2.161
2023-03-05T04:52:00.651Z,-2.161
2023-03-05T04:53:00.727Z,-2.197
2023-03-05T04:54:00.733Z,-2.181
2023-03-05T04:55:00.770Z,-2.181
2023-03-05T04:56:00.795Z,-2.181
2023-03-05T04:57:00.831Z,-2.165
2023-03-05T04:58:00.870Z,-2.165
2023-03-05T04:59:00.899Z,-2.149
2023-03-05T05:00:00.933Z,-2.133
2023-03-05T05:01:00.962Z,-2.117
2023-03-05T05:02:01.039Z,-2.101
2023-03-05T05:03:01.116Z,-2.085
2023-03-05T05:04:01.057Z,-2.085
2023-03-05T05:05:01.106Z,-2.069
2023-03-05T05:06:01.128Z,-2.053
2023-03-05T05:07:01.192Z,-2.037
2023-03-05T05:08:01.210Z,-2.021
2023-03-05T05:09:01.247Z,-2.005
2023-03-05T05:10:01.291Z,-2.005
2023-03-05T05:11:01.331Z,-2.005
2023-03-05T05:12:01.351Z,-2.005
2023-03-05T05:13:01.415Z,-2.005
2023-03-05T05:14:01.442Z,-2.005
2023-03-05T05:15:01.468Z,-2.005
2023-03-05T05:16:01.565Z,-2.005
2023-03-05T05:17:01.540Z,-2.005
2023-03-05T05:18:01.602Z,-1.982
2023-03-05T05:19:01.654Z,-1.982
2023-03-05T05:20:01.686Z,-1.966
2023-03-05T05:21:01.676Z,-1.982
2023-03-05T05:22:01.706Z,-1.982
2023-03-05T05:23:01.752Z,-1.982
2023-03-05T05:24:01.780Z,-1.982
2023-03-05T05:25:01.820Z,-1.966
2023-03-05T05:26:01.853Z,-1.983
2023-03-05T05:27:01.883Z,-1.968
2023-03-05T05:28:01.914Z,-1.968
2023-03-05T05:29:01.957Z,-1.951
2023-03-05T05:30:02.021Z,-1.928
2023-03-05T05:31:02.025Z,-1.944
2023-03-05T05:32:02.113Z,-1.928
2023-03-05T05:33:02.082Z,-1.944
2023-03-05T05:34:02.127Z,-1.96
2023-03-05T05:35:02.162Z,-1.937
2023-03-05T05:36:02.186Z,-1.937
2023-03-05T05:37:02.227Z,-1.937
2023-03-05T05:38:02.265Z,-1.921
2023-03-05T05:39:02.294Z,-1.921
2023-03-05T05:40:02.325Z,-1.899
2023-03-05T05:41:02.364Z,-1.899
2023-03-05T05:42:02.398Z,-1.899
2023-03-05T05:43:02.437Z,-1.914
2023-03-05T05:44:02.489Z,-1.893
2023-03-05T05:45:02.508Z,-1.909
2023-03-05T05:46:02.611Z,-1.856
2023-03-05T05:47:02.565Z,-1.856
2023-03-05T05:48:02.609Z,-1.849
2023-03-05T05:49:02.637Z,-1.849
2023-03-05T05:50:02.679Z,-1.865
2023-03-05T05:51:02.702Z,-1.843
2023-03-05T05:52:02.747Z,-1.843
2023-03-05T05:53:02.791Z,-1.843
2023-03-05T05:54:02.832Z,-1.843
2023-03-05T05:55:02.863Z,-1.843
2023-03-05T05:56:02.883Z,-1.853
2023-03-05T05:57:02.921Z,-1.853
2023-03-05T05:58:02.955Z,-1.87
2023-03-05T05:59:02.994Z,-1.863
2023-03-05T06:00:03.032Z,-1.847
2023-03-05T06:01:03.077Z,-1.847
2023-03-05T06:02:03.133Z,-1.812
2023-03-05T06:03:03.177Z,-1.828
2023-03-05T06:04:03.166Z,-1.828
2023-03-05T06:05:03.203Z,-1.791
2023-03-05T06:06:03.233Z,-1.807
2023-03-05T06:07:03.259Z,-1.823
2023-03-05T06:08:03.305Z,-1.823
2023-03-05T06:09:03.349Z,-1.816
2023-03-05T06:10:03.382Z,-1.832
2023-03-05T06:11:03.423Z,-1.832
2023-03-05T06:12:03.460Z,-1.848
2023-03-05T06:13:03.491Z,-1.826
2023-03-05T06:14:03.523Z,-1.774
2023-03-05T06:15:03.568Z,-1.774
2023-03-05T06:16:03.601Z,-1.79
2023-03-05T06:17:03.638Z,-1.768
2023-03-05T06:18:03.672Z,-1.784
2023-03-05T06:19:04.346Z,-1.784
2023-03-05T06:20:03.741Z,-1.8
2023-03-05T06:21:03.776Z,-1.8
2023-03-05T06:22:03.808Z,-1.777
2023-03-05T06:23:03.858Z,-1.81
2023-03-05T06:24:03.860Z,-1.81
2023-03-05T06:25:03.895Z,-1.81
2023-03-05T06:26:03.929Z,-1.808
2023-03-05T06:27:03.968Z,-1.824
2023-03-05T06:28:04.004Z,-1.824
2023-03-05T06:29:04.035Z,-1.824
2023-03-05T06:30:04.066Z,-1.801
2023-03-05T06:31:04.158Z,-1.817
2023-03-05T06:32:04.183Z,-1.817
2023-03-05T06:33:04.163Z,-1.817
2023-03-05T06:34:04.209Z,-1.827
2023-03-05T06:35:04.245Z,-1.844
2023-03-05T06:36:04.272Z,-1.844
2023-03-05T06:37:04.306Z,-1.877
2023-03-05T06:38:04.340Z,-1.887
2023-03-05T06:39:04.373Z,-1.903
2023-03-05T06:40:04.411Z,-1.868
2023-03-05T06:41:04.439Z,-1.901
2023-03-05T06:42:04.486Z,-1.879
2023-03-05T06:43:04.507Z,-1.895
2023-03-05T06:44:04.547Z,-1.895
2023-03-05T06:45:04.570Z,-1.912
2023-03-05T06:46:04.759Z,-1.907
2023-03-05T06:47:04.654Z,-1.957
2023-03-05T06:48:04.684Z,-1.94
2023-03-05T06:49:04.714Z,-1.94
2023-03-05T06:50:04.756Z,-1.94
2023-03-05T06:51:04.790Z,-1.973
2023-03-05T06:52:04.828Z,-2.006
2023-03-05T06:53:04.858Z,-2.006
2023-03-05T06:54:04.891Z,-2.023
2023-03-05T06:55:04.922Z,-2.055
2023-03-05T06:56:04.959Z,-2.089
2023-03-05T06:57:05.007Z,-2.106
2023-03-05T06:58:05.025Z,-2.089
2023-03-05T06:59:05.074Z,-2.083
2023-03-05T07:00:05.090Z,-2.1
2023-03-05T07:01:05.143Z,-2.134
2023-03-05T07:02:05.187Z,-2.151
2023-03-05T07:03:05.179Z,-2.145
2023-03-05T07:04:05.223Z,-2.139
2023-03-05T07:05:05.260Z,-2.156
2023-03-05T07:06:05.283Z,-2.156
2023-03-05T07:07:05.324Z,-2.099
2023-03-05T07:08:05.354Z,-2.099
2023-03-05T07:09:05.390Z,-2.128
2023-03-05T07:10:05.415Z,-2.214
2023-03-05T07:11:05.468Z,-2.214
2023-03-05T07:12:05.492Z,-2.174
2023-03-05T07:13:05.524Z,-2.243
2023-03-05T07:14:05.570Z,-2.289
2023-03-05T07:15:05.599Z,-2.341
2023-03-05T07:16:05.727Z,-2.359
2023-03-05T07:17:05.683Z,-2.341
2023-03-05T07:18:05.706Z,-2.411
2023-03-05T07:19:05.742Z,-2.371
2023-03-05T07:20:05.762Z,-2.336
2023-03-05T07:21:05.800Z,-2.371
2023-03-05T07:22:05.831Z,-2.389
2023-03-05T07:23:05.865Z,-2.424
2023-03-05T07:24:05.901Z,-2.389
2023-03-05T07:25:05.938Z,-2.406
2023-03-05T07:26:05.971Z,-2.389
2023-03-05T07:27:06.012Z,-2.406
2023-03-05T07:28:06.059Z,-2.459
2023-03-05T07:29:06.104Z,-2.494
2023-03-05T07:30:06.101Z,-2.459
2023-03-05T07:31:06.272Z,-2.424
2023-03-05T07:32:06.220Z,-2.459
2023-03-05T07:33:06.198Z,-2.46
2023-03-05T07:34:06.227Z,-2.403
2023-03-05T07:35:06.270Z,-2.438
2023-03-05T07:36:06.305Z,-2.368
2023-03-05T07:37:06.338Z,-2.35
2023-03-05T07:38:06.382Z,-2.328
2023-03-05T07:39:06.469Z,-2.364
2023-03-05T07:40:06.427Z,-2.346
2023-03-05T07:41:06.463Z,-2.382
2023-03-05T07:42:06.535Z,-2.359
2023-03-05T07:43:06.535Z,-2.377
2023-03-05T07:44:06.575Z,-2.359
2023-03-05T07:45:06.599Z,-2.337
2023-03-05T07:46:06.666Z,-2.356
2023-03-05T07:47:06.658Z,-2.374
2023-03-05T07:48:06.689Z,-2.352
2023-03-05T07:49:06.732Z,-2.405
2023-03-05T07:50:06.772Z,-2.37
2023-03-05T07:51:06.812Z,-2.384
2023-03-05T07:52:06.838Z,-2.402
2023-03-05T07:53:06.869Z,-2.47
2023-03-05T07:54:06.906Z,-2.542
2023-03-05T07:55:06.943Z,-2.614
2023-03-05T07:56:06.977Z,-2.655
2023-03-05T07:57:07.015Z,-2.673
2023-03-05T07:58:07.057Z,-2.655
2023-03-05T07:59:07.122Z,-2.633
2023-03-05T08:00:07.120Z,-2.59
2023-03-05T08:01:07.142Z,-2.601
2023-03-05T08:02:07.242Z,-2.628
2023-03-05T08:03:07.224Z,-2.623
2023-03-05T08:04:07.311Z,-2.546
2023-03-05T08:05:07.322Z,-2.491
2023-03-05T08:06:07.325Z,-2.672
2023-03-05T08:07:07.355Z,-2.748
2023-03-05T08:08:07.399Z,-2.791
2023-03-05T08:09:07.448Z,-2.8
2023-03-05T08:10:07.474Z,-2.669
2023-03-05T08:11:07.511Z,-2.635
2023-03-05T08:12:07.543Z,-2.639
2023-03-05T08:13:07.571Z,-2.602
2023-03-05T08:14:07.599Z,-2.628
2023-03-05T08:15:07.633Z,-2.663
2023-03-05T08:16:07.755Z,-2.663
2023-03-05T08:17:07.708Z,-2.665
2023-03-05T08:18:07.727Z,-2.572
2023-03-05T08:19:07.776Z,-2.615
2023-03-05T08:20:07.807Z,-2.581
2023-03-05T08:21:07.837Z,-2.617
2023-03-05T08:22:07.878Z,-2.815
2023-03-05T08:23:07.910Z,-2.815
2023-03-05T08:24:07.933Z,-2.815
2023-03-05T08:25:07.966Z,-2.854
2023-03-05T08:26:08.003Z,-2.815
2023-03-05T08:27:08.036Z,-2.717
2023-03-05T08:28:08.065Z,-2.734
2023-03-05T08:29:08.104Z,-2.69
2023-03-05T08:30:08.152Z,-2.671
2023-03-05T08:31:08.198Z,-2.649
2023-03-05T08:32:08.278Z,-2.746
2023-03-05T08:33:08.256Z,-2.749
2023-03-05T08:34:08.296Z,-2.808
2023-03-05T08:35:08.331Z,-2.656
2023-03-05T08:36:08.360Z,-2.595
2023-03-05T08:37:08.391Z,-2.713
2023-03-05T08:38:08.441Z,-2.711
2023-03-05T08:39:08.467Z,-2.652
2023-03-05T08:40:08.534Z,-2.716
2023-03-05T08:41:08.638Z,-2.716
2023-03-05T08:42:09.062Z,-2.678
2023-03-05T08:43:08.615Z,-2.743
2023-03-05T08:44:08.646Z,-2.723
2023-03-05T08:45:08.669Z,-2.783
2023-03-05T08:46:08.817Z,-2.709
2023-03-05T08:47:08.742Z,-2.607
2023-03-05T08:48:08.793Z,-2.647
2023-03-05T08:49:08.812Z,-2.667
2023-03-05T08:50:08.850Z,-2.611
2023-03-05T08:51:08.871Z,-2.633
2023-03-05T08:52:08.904Z,-2.693
2023-03-05T08:53:08.955Z,-2.693
2023-03-05T08:54:08.975Z,-2.765
2023-03-05T08:55:09.007Z,-2.691
2023-03-05T08:56:09.040Z,-2.753
2023-03-05T08:57:09.074Z,-2.719
2023-03-05T08:58:09.121Z,-2.893
2023-03-05T08:59:09.147Z,-2.912
2023-03-05T09:00:09.187Z,-2.882
2023-03-05T09:01:09.210Z,-2.736
2023-03-05T09:02:09.323Z,-2.658
2023-03-05T09:03:09.377Z,-2.763
2023-03-05T09:04:09.315Z,-2.801
2023-03-05T09:05:09.342Z,-2.916
2023-03-05T09:06:09.373Z,-2.832
2023-03-05T09:07:09.410Z,-2.729
2023-03-05T09:08:09.440Z,-2.749
2023-03-05T09:09:09.504Z,-2.73
2023-03-05T09:10:09.519Z,-2.959
2023-03-05T09:11:09.572Z,-2.843
2023-03-05T09:12:12.010Z,-2.804
2023-03-05T09:13:09.631Z,-2.889
2023-03-05T09:14:09.684Z,-2.889
2023-03-05T09:15:09.694Z,-2.994
2023-03-05T09:16:09.780Z,-2.994
2023-03-05T09:17:09.754Z,-3.206
2023-03-05T09:18:09.785Z,-3.313
2023-03-05T09:19:09.806Z,-3.27
2023-03-05T09:20:09.852Z,-3.1
2023-03-05T09:21:09.872Z,-3.122
2023-03-05T09:22:09.902Z,-3.16
2023-03-05T09:23:09.939Z,-3.215
2023-03-05T09:24:09.970Z,-3.088
2023-03-05T09:25:10.005Z,-3.194
2023-03-05T09:26:10.040Z,-3.173
2023-03-05T09:27:10.068Z,-3.119
2023-03-05T09:28:10.107Z,-3.101
2023-03-05T09:29:10.142Z,-3.407
2023-03-05T09:30:10.180Z,-3.149
2023-03-05T09:31:10.223Z,-3.329
2023-03-05T09:32:10.371Z,-3.372
2023-03-05T09:33:10.279Z,-3.27
2023-03-05T09:34:10.342Z,-3.317
2023-03-05T09:35:10.358Z,-3.296
2023-03-05T09:36:10.393Z,-3.233
2023-03-05T09:37:10.435Z,-3.17
2023-03-05T09:38:10.485Z,-3.103
2023-03-05T09:39:10.515Z,-2.978
2023-03-05T09:40:10.567Z,-2.8
2023-03-05T09:41:10.574Z,-2.892
2023-03-05T09:42:10.606Z,-2.955
2023-03-05T09:43:10.667Z,-3.274
2023-03-05T09:44:10.680Z,-3.572
2023-03-05T09:45:10.774Z,-3.704
2023-03-05T09:46:10.827Z,-3.421
2023-03-05T09:47:10.807Z,-3.442
2023-03-05T09:48:10.829Z,-3.529
2023-03-05T09:49:10.852Z,-3.485
2023-03-05T09:50:10.884Z,-3.442
2023-03-05T09:51:10.920Z,-3.638
2023-03-05T09:52:10.948Z,-3.478
2023-03-05T09:53:11.002Z,-3.446
2023-03-05T09:54:11.031Z,-3.44
2023-03-05T09:55:11.062Z,-3.571
2023-03-05T09:56:11.083Z,-3.527
2023-03-05T09:57:11.122Z,-3.527
2023-03-05T09:58:11.155Z,-3.505
2023-03-05T09:59:11.190Z,-3.571
2023-03-05T10:00:11.218Z,-3.571
2023-03-05T10:01:11.286Z,-3.686
2023-03-05T10:02:11.282Z,-3.774
2023-03-05T10:03:11.328Z,-3.929
2023-03-05T10:04:11.421Z,-3.896
2023-03-05T10:05:11.392Z,-3.967
2023-03-05T10:06:11.416Z,-3.99
2023-03-05T10:07:11.461Z,-3.856
2023-03-05T10:08:11.488Z,-3.79
2023-03-05T10:09:11.583Z,-3.879
2023-03-05T10:10:11.548Z,-3.79
2023-03-05T10:11:11.581Z,-3.812
2023-03-05T10:12:11.618Z,-3.79
2023-03-05T10:13:11.659Z,-3.807
2023-03-05T10:14:11.721Z,-3.724
2023-03-05T10:15:11.720Z,-3.615
2023-03-05T10:16:11.809Z,-3.408
2023-03-05T10:17:11.787Z,-3.319
2023-03-05T10:18:11.830Z,-3.255
2023-03-05T10:19:11.889Z,-3.274
2023-03-05T10:20:11.901Z,-3.29
2023-03-05T10:21:11.915Z,-3.312
2023-03-05T10:22:11.946Z,-3.257
2023-03-05T10:23:12.059Z,-3.149
2023-03-05T10:24:12.009Z,-3.192
2023-03-05T10:25:12.049Z,-3.41
2023-03-05T10:26:12.081Z,-3.477
2023-03-05T10:27:12.167Z,-3.521
2023-03-05T10:28:12.154Z,-3.499
2023-03-05T10:29:12.190Z,-3.489
2023-03-05T10:30:12.228Z,-3.335
2023-03-05T10:31:12.270Z,-3.364
2023-03-05T10:32:12.429Z,-3.385
2023-03-05T10:33:12.351Z,-3.364
2023-03-05T10:34:12.418Z,-3.31
2023-03-05T10:35:12.398Z,-3.288
2023-03-05T10:36:12.433Z,-3.245
2023-03-05T10:37:12.468Z,-3.224
2023-03-05T10:38:12.504Z,-3.36
2023-03-05T10:39:12.620Z,-3.36
2023-03-05T10:40:12.566Z,-3.295
2023-03-05T10:41:12.607Z,-3.209
2023-03-05T10:42:12.648Z,-3.413
2023-03-05T10:43:12.669Z,-3.545
2023-03-05T10:44:12.736Z,-3.501
2023-03-05T10:45:14.132Z,-3.578
2023-03-05T10:46:12.855Z,-3.6
2023-03-05T10:47:12.812Z,-3.404
2023-03-05T10:48:12.831Z,-3.386
2023-03-05T10:49:12.867Z,-3.3
2023-03-05T10:50:12.914Z,-3.327
2023-03-05T10:51:12.916Z,-3.305
2023-03-05T10:52:12.949Z,-3.355
2023-03-05T10:53:12.977Z,-3.356
2023-03-05T10:54:13.013Z,-3.313
2023-03-05T10:55:13.055Z,-3.292
2023-03-05T10:56:13.074Z,-3.143
2023-03-05T10:57:13.123Z,-3.13
2023-03-05T10:58:13.160Z,-3.067
2023-03-05T10:59:13.188Z,-3.027
2023-03-05T11:00:13.232Z,-2.943
2023-03-05T11:01:13.273Z,-2.899
2023-03-05T11:02:13.326Z,-2.92
2023-03-05T11:03:13.313Z,-2.817
2023-03-05T11:04:13.345Z,-2.839
2023-03-05T11:05:13.382Z,-2.829
2023-03-05T11:06:13.413Z,-2.767
2023-03-05T11:07:13.444Z,-2.707
2023-03-05T11:08:13.481Z,-2.84
2023-03-05T11:09:13.512Z,-2.739
2023-03-05T11:10:13.560Z,-2.682
2023-03-05T11:11:13.575Z,-2.581
2023-03-05T11:12:13.628Z,-2.543
2023-03-05T11:13:13.657Z,-2.543
2023-03-05T11:14:13.688Z,-2.616
2023-03-05T11:15:13.724Z,-2.517
2023-03-05T11:16:13.786Z,-2.519
2023-03-05T11:17:13.794Z,-2.403
2023-03-05T11:18:13.820Z,-2.245
2023-03-05T11:19:13.859Z,-2.209
2023-03-05T11:20:13.885Z,-2.229
2023-03-05T11:21:13.920Z,-2.19
2023-03-05T11:22:13.952Z,-2.189
2023-03-05T11:23:13.976Z,-2.187
2023-03-05T11:24:14.029Z,-2.263
2023-03-05T11:25:14.046Z,-2.225
2023-03-05T11:26:14.077Z,-2.203
2023-03-05T11:27:14.132Z,-2.184
2023-03-05T11:28:17.089Z,-2.181
2023-03-05T11:29:14.175Z,-2.202
2023-03-05T11:30:14.206Z,-2.111
2023-03-05T11:31:14.284Z,-1.977
2023-03-05T11:32:14.297Z,-1.977
2023-03-05T11:33:14.310Z,-2.045
2023-03-05T11:34:14.327Z,-2.105
2023-03-05T11:35:14.370Z,-2.162
2023-03-05T11:36:14.404Z,-2.221
2023-03-05T11:37:14.435Z,-2.11
2023-03-05T11:38:14.489Z,-2.107
2023-03-05T11:39:14.519Z,-2.203
2023-03-05T11:40:14.555Z,-2.148
2023-03-05T11:41:14.608Z,-2.091
2023-03-05T11:42:14.616Z,-1.944
2023-03-05T11:43:14.648Z,-1.981
2023-03-05T11:44:14.702Z,-2.132
2023-03-05T11:45:14.727Z,-2.057
2023-03-05T11:46:14.863Z,-2.004
2023-03-05T11:47:14.790Z,-1.801
2023-03-05T11:48:14.839Z,-1.604
2023-03-05T11:49:14.869Z,-1.457
2023-03-05T11:50:14.910Z,-1.533
2023-03-05T11:51:14.942Z,-1.479
2023-03-05T11:52:14.965Z,-1.462
2023-03-05T11:53:14.993Z,-1.444
2023-03-05T11:54:15.023Z,-1.515
2023-03-05T11:55:15.059Z,-1.516
2023-03-05T11:56:16.487Z,-1.464
2023-03-05T11:57:15.127Z,-1.354
2023-03-05T11:58:15.161Z,-1.3
2023-03-05T11:59:15.193Z,-1.227
2023-03-05T12:00:15.246Z,-1.169
2023-03-05T12:01:15.263Z,-1.188
2023-03-05T12:02:16.334Z,-1.043
2023-03-05T12:03:15.329Z,-0.8087
2023-03-05T12:04:15.360Z,-0.8768
2023-03-05T12:05:15.391Z,-0.749
2023-03-05T12:06:15.429Z,-0.9061
2023-03-05T12:07:15.471Z,-0.9198
2023-03-05T12:08:15.501Z,-0.9335
2023-03-05T12:09:15.534Z,-0.9155
2023-03-05T12:10:15.636Z,-0.9669
2023-03-05T12:11:15.597Z,-1.113
2023-03-05T12:12:15.623Z,-1.127
2023-03-05T12:13:15.663Z,-1.164
2023-03-05T12:14:15.700Z,-1.182
2023-03-05T12:15:15.735Z,-1.307
2023-03-05T12:16:15.820Z,-1.27
2023-03-05T12:17:15.796Z,-1.267
2023-03-05T12:18:15.831Z,-1.435
2023-03-05T12:19:18.379Z,-1.397
2023-03-05T12:20:16.030Z,-1.286
2023-03-05T12:21:15.940Z,-1.36
2023-03-05T12:22:15.972Z,-1.305
2023-03-05T12:23:16.005Z,-1.252
2023-03-05T12:24:16.030Z,-1.271
2023-03-05T12:25:16.072Z,-1.249
2023-03-05T12:26:16.098Z,-1.323
2023-03-05T12:27:16.127Z,-1.267
2023-03-05T12:28:16.170Z,-1.395
2023-03-05T12:29:16.184Z,-1.603
2023-03-05T12:30:16.226Z,-1.565